Time;durP1;ratioP1;P1;durP2;ratioP2;P2;SDS_P1;SDS_P2;PMS_P1;PMS_P2;Temp;Humidity;BMP_temperature;BMP_pressure;BME280_temperature;BME280_humidity;BME280_pressure;Samples;Min_cycle;Max_cycle;Signal;HPM_P1;HPM_P2
2022/07/08 00:00:45;;;;;;;4.60;4.00;;;;;;;22.58;52.23;100267.30;117071;1183;23550;-66
2022/07/08 00:03:13;;;;;;;5.40;4.00;;;;;;;22.57;52.53;100267.02;117069;1183;21897;-59
2022/07/08 00:05:40;;;;;;;4.20;3.80;;;;;;;22.55;52.54;100266.03;116965;1189;23635;-58
2022/07/08 00:08:07;;;;;;;5.80;4.30;;;;;;;22.54;52.73;100258.96;117014;1184;21849;-65
2022/07/08 00:10:34;;;;;;;6.10;4.60;;;;;;;22.53;52.56;100251.38;116985;1186;21953;-58
2022/07/08 00:13:01;;;;;;;6.60;3.90;;;;;;;22.53;52.58;100248.35;117235;1185;21860;-64
2022/07/08 00:15:29;;;;;;;5.70;4.00;;;;;;;22.51;52.75;100247.40;117043;1186;22822;-58
2022/07/08 00:17:56;;;;;;;4.90;4.40;;;;;;;22.50;53.10;100249.97;116986;1187;22929;-66
2022/07/08 00:20:24;;;;;;;6.00;4.20;;;;;;;22.48;52.74;100240.39;117044;1182;23300;-59
2022/07/08 00:22:51;;;;;;;5.50;4.80;;;;;;;22.46;52.85;100239.48;117038;1186;24142;-58
2022/07/08 00:25:18;;;;;;;7.30;4.30;;;;;;;22.43;53.26;100239.30;117037;1182;21894;-58
2022/07/08 00:27:46;;;;;;;6.50;4.40;;;;;;;22.38;53.17;100243.33;116863;1188;22932;-65
2022/07/08 00:30:13;;;;;;;6.70;4.60;;;;;;;22.36;53.41;100238.45;117110;1187;23480;-65
2022/07/08 00:32:40;;;;;;;5.00;4.30;;;;;;;22.33;53.83;100238.99;116803;1189;21867;-65
2022/07/08 00:35:07;;;;;;;5.60;4.50;;;;;;;22.29;53.54;100238.02;116923;1187;22153;-58
2022/07/08 00:37:34;;;;;;;5.70;5.10;;;;;;;22.27;53.55;100234.91;117016;1185;21865;-58
2022/07/08 00:40:03;;;;;;;4.80;4.30;;;;;;;22.25;53.61;100234.52;116864;1186;21860;-59
2022/07/08 00:42:30;;;;;;;5.60;4.20;;;;;;;22.22;53.66;100233.08;117068;1188;22153;-58
2022/07/08 00:44:57;;;;;;;5.40;4.90;;;;;;;22.19;53.75;100233.08;116883;1185;21897;-66
2022/07/08 00:47:24;;;;;;;5.60;4.70;;;;;;;22.15;54.24;100230.67;117082;1184;22022;-58
2022/07/08 00:49:51;;;;;;;6.90;4.70;;;;;;;22.10;54.00;100227.75;116867;1187;23552;-58
2022/07/08 00:52:18;;;;;;;5.80;4.80;;;;;;;22.09;53.86;100230.73;116772;1188;21861;-65
2022/07/08 00:54:45;;;;;;;5.60;4.70;;;;;;;22.09;54.03;100227.31;116752;1189;21905;-62
2022/07/08 00:57:13;;;;;;;5.60;4.70;;;;;;;22.09;53.85;100228.52;117127;1183;22917;-66
2022/07/08 00:59:41;;;;;;;5.30;4.80;;;;;;;22.10;53.92;100230.60;117045;1186;23181;-65
2022/07/08 01:02:08;;;;;;;5.50;5.00;;;;;;;22.10;54.04;100228.31;117024;1187;22988;-58
2022/07/08 01:04:36;;;;;;;5.10;4.60;;;;;;;22.14;54.12;100228.21;117016;1185;22098;-66
2022/07/08 01:07:03;;;;;;;8.80;5.30;;;;;;;22.13;54.23;100228.11;117156;1182;23572;-58
2022/07/08 01:09:30;;;;;;;5.60;5.00;;;;;;;22.11;54.08;100230.16;117117;1187;21918;-58
2022/07/08 01:11:59;;;;;;;6.20;5.20;;;;;;;22.09;54.42;100227.80;117105;1184;22854;-66
2022/07/08 01:14:26;;;;;;;6.00;5.10;;;;;;;22.08;54.40;100224.70;117088;1187;21905;-59
2022/07/08 01:16:53;;;;;;;5.90;5.30;;;;;;;22.07;54.14;100222.61;117079;1182;21922;-65
2022/07/08 01:19:20;;;;;;;6.00;5.20;;;;;;;22.07;54.45;100220.81;117053;1186;21867;-66
2022/07/08 01:21:47;;;;;;;5.40;4.90;;;;;;;22.08;54.20;100229.33;116946;1185;22929;-58
2022/07/08 01:24:14;;;;;;;6.40;4.90;;;;;;;22.08;54.12;100230.55;116972;1186;22945;-65
2022/07/08 01:26:41;;;;;;;9.20;5.10;;;;;;;22.08;54.20;100227.13;117024;1187;22633;-59
2022/07/08 01:29:08;;;;;;;5.10;4.60;;;;;;;22.08;54.28;100228.77;117031;1186;21875;-59
2022/07/08 01:31:35;;;;;;;6.90;5.20;;;;;;;22.08;54.23;100230.58;116998;1187;21863;-65
2022/07/08 01:34:03;;;;;;;5.80;5.10;;;;;;;22.08;54.30;100231.30;117111;1185;22084;-58
2022/07/08 01:36:30;;;;;;;7.80;4.80;;;;;;;22.07;54.27;100234.05;117026;1182;23695;-65
2022/07/08 01:38:57;;;;;;;7.50;5.10;;;;;;;22.05;54.28;100235.08;117039;1186;21866;-65
2022/07/08 01:41:24;;;;;;;5.30;4.80;;;;;;;22.03;54.38;100236.05;117179;1183;23481;-66
2022/07/08 01:43:51;;;;;;;5.80;5.00;;;;;;;22.02;54.46;100233.81;117051;1186;21932;-66
2022/07/08 01:46:18;;;;;;;6.10;5.00;;;;;;;22.01;54.53;100234.60;117059;1185;22929;-58
2022/07/08 01:48:45;;;;;;;5.10;4.60;;;;;;;21.97;54.78;100234.27;117092;1186;21876;-58
2022/07/08 01:51:12;;;;;;;6.40;5.50;;;;;;;21.93;54.88;100236.30;117133;1186;21861;-58
2022/07/08 01:53:40;;;;;;;6.70;4.90;;;;;;;21.91;54.76;100237.37;117035;1187;21864;-65
2022/07/08 01:56:07;;;;;;;6.20;4.30;;;;;;;21.89;54.78;100237.63;117073;1186;23713;-66
2022/07/08 01:58:34;;;;;;;5.60;5.10;;;;;;;21.89;54.79;100236.75;117013;1187;21960;-58
2022/07/08 02:01:01;;;;;;;7.00;4.80;;;;;;;21.88;54.65;100243.77;117025;1186;24195;-64
2022/07/08 02:03:28;;;;;;;7.10;4.40;;;;;;;21.88;54.59;100245.02;117090;1183;22931;-58
2022/07/08 02:05:55;;;;;;;6.20;4.90;;;;;;;21.87;54.62;100246.17;117062;1177;22943;-65
2022/07/08 02:08:23;;;;;;;6.00;4.50;;;;;;;21.86;54.66;100250.50;117035;1183;21853;-58
2022/07/08 02:13:36;;;;;;;6.30;4.70;;;;;;;21.92;54.92;100254.23;117010;1187;22929;-65
2022/07/08 02:16:04;;;;;;;5.60;4.50;;;;;;;21.89;54.92;100261.72;116986;1186;23578;-59
2022/07/08 02:18:31;;;;;;;6.10;4.60;;;;;;;21.88;55.07;100264.54;117057;1181;22941;-65
2022/07/08 02:21:00;;;;;;;6.70;5.00;;;;;;;21.86;55.12;100268.58;117089;1187;22201;-65
2022/07/08 02:23:27;;;;;;;6.90;4.70;;;;;;;21.84;54.92;100271.16;117102;1188;21867;-58
2022/07/08 02:25:54;;;;;;;6.20;4.40;;;;;;;21.86;54.88;100274.83;117021;1187;23059;-65
2022/07/08 02:28:20;;;;;;;5.60;5.10;;;;;;;21.85;54.70;100276.80;116906;1187;22073;-65
2022/07/08 02:30:48;;;;;;;5.60;4.60;;;;;;;21.86;54.85;100275.52;117028;1186;23475;-65
2022/07/08 02:33:15;;;;;;;5.50;5.00;;;;;;;21.80;55.07;100272.48;117084;1187;21859;-65
2022/07/08 02:35:43;;;;;;;6.00;5.20;;;;;;;21.77;55.00;100271.04;117102;1187;21855;-66
2022/07/08 02:38:10;;;;;;;5.70;5.10;;;;;;;21.76;55.07;100267.73;117041;1183;23553;-66
2022/07/08 02:40:37;;;;;;;9.50;5.20;;;;;;;21.73;55.21;100272.01;116980;1184;24178;-65
2022/07/08 02:43:09;;;;;;;5.40;4.80;;;;;;;21.74;55.07;100277.14;116969;1186;22628;-65
2022/07/08 02:45:38;;;;;;;7.70;4.60;;;;;;;21.74;55.10;100278.41;117054;1187;21856;-66
2022/07/08 02:48:05;;;;;;;6.40;5.50;;;;;;;21.76;54.96;100280.26;117096;1182;21967;-66
2022/07/08 02:50:33;;;;;;;7.70;4.90;;;;;;;21.79;55.00;100281.31;117061;1187;22072;-64
2022/07/08 02:53:00;;;;;;;7.00;4.80;;;;;;;21.81;55.18;100281.91;117054;1182;22923;-58
2022/07/08 02:55:27;;;;;;;6.00;5.40;;;;;;;21.81;55.25;100277.03;117009;1186;22844;-66
2022/07/08 02:57:54;;;;;;;6.20;4.70;;;;;;;21.82;55.57;100277.21;117050;1182;22759;-65
2022/07/08 03:00:22;;;;;;;6.10;5.00;;;;;;;21.80;55.48;100274.98;117041;1188;23598;-58
2022/07/08 03:02:49;;;;;;;5.50;5.00;;;;;;;21.80;55.38;100277.30;117008;1184;23634;-66
2022/07/08 03:05:16;;;;;;;6.20;5.00;;;;;;;21.80;55.80;100280.55;117088;1188;21860;-59
2022/07/08 03:07:43;;;;;;;4.90;4.40;;;;;;;21.80;55.53;100280.33;117053;1183;24174;-66
2022/07/08 03:10:10;;;;;;;5.00;4.40;;;;;;;21.84;55.48;100283.86;117054;1187;23001;-58
2022/07/08 03:12:37;;;;;;;9.20;4.80;;;;;;;21.85;55.52;100290.39;117009;1185;22948;-57
2022/07/08 03:15:04;;;;;;;6.80;5.00;;;;;;;21.86;55.50;100302.12;117025;1182;22748;-57
2022/07/08 03:17:31;;;;;;;5.30;4.80;;;;;;;21.89;55.62;100301.23;117273;1182;22924;-60
2022/07/08 03:19:58;;;;;;;8.10;4.80;;;;;;;21.91;55.60;100300.77;116964;1186;22644;-66
2022/07/08 03:22:25;;;;;;;9.30;4.80;;;;;;;21.92;55.49;100298.88;117023;1188;21856;-58
2022/07/08 03:24:53;;;;;;;6.20;4.70;;;;;;;21.93;55.55;100297.59;117174;1183;22976;-58
2022/07/08 03:27:20;;;;;;;5.30;4.70;;;;;;;21.94;55.52;100300.40;117020;1183;22630;-67
2022/07/08 03:29:47;;;;;;;5.90;4.90;;;;;;;21.97;55.41;100300.04;117039;1186;21857;-66
2022/07/08 03:32:14;;;;;;;8.00;5.20;;;;;;;21.98;55.62;100294.21;116997;1184;24238;-66
2022/07/08 03:34:41;;;;;;;6.20;4.80;;;;;;;21.98;55.62;100293.86;117259;1182;22946;-58
2022/07/08 03:37:09;;;;;;;5.60;4.90;;;;;;;21.98;55.81;100288.35;117050;1188;21857;-66
2022/07/08 03:39:36;;;;;;;9.30;5.20;;;;;;;21.96;55.79;100284.00;117064;1183;22932;-66
2022/07/08 03:42:03;;;;;;;5.90;4.70;;;;;;;21.99;55.75;100289.16;117179;1186;21876;-66
2022/07/08 03:44:30;;;;;;;5.50;5.00;;;;;;;22.01;55.73;100287.48;117464;1186;21853;-67
2022/07/08 03:46:58;;;;;;;5.60;4.70;;;;;;;21.97;55.76;100290.54;117143;1185;21852;-65
2022/07/08 03:49:25;;;;;;;6.00;4.90;;;;;;;21.98;55.76;100291.19;117127;1184;21884;-58
2022/07/08 03:51:55;;;;;;;5.70;5.20;;;;;;;22.01;55.73;100291.39;117000;1184;21955;-67
2022/07/08 03:54:22;;;;;;;5.30;4.50;;;;;;;22.05;55.92;100292.96;117001;1183;22639;-59
2022/07/08 03:56:49;;;;;;;7.10;5.00;;;;;;;22.06;55.99;100290.94;117029;1187;22932;-65
2022/07/08 03:59:16;;;;;;;5.40;4.80;;;;;;;22.06;56.08;100291.05;116967;1184;23665;-59
2022/07/08 04:01:45;;;;;;;6.80;5.20;;;;;;;22.07;56.14;100289.42;117057;1186;22863;-59
2022/07/08 04:04:12;;;;;;;5.60;4.70;;;;;;;22.15;55.89;100290.54;117014;1186;21904;-66
2022/07/08 04:06:39;;;;;;;4.70;4.10;;;;;;;22.12;55.93;100290.52;117081;1187;21856;-66
2022/07/08 04:09:06;;;;;;;5.40;4.90;;;;;;;22.15;56.01;100286.23;117155;1186;22617;-59
2022/07/08 04:11:33;;;;;;;5.40;4.80;;;;;;;22.18;56.11;100284.61;117170;1184;21856;-59
2022/07/08 04:14:00;;;;;;;5.30;4.80;;;;;;;22.21;55.89;100284.98;117006;1184;22696;-59
2022/07/08 04:16:27;;;;;;;5.60;5.10;;;;;;;22.24;56.09;100284.05;117011;1187;22023;-59
2022/07/08 04:18:55;;;;;;;6.60;5.00;;;;;;;22.27;56.27;100285.32;116930;1183;23465;-59
2022/07/08 04:21:23;;;;;;;6.10;5.00;;;;;;;22.29;56.11;100289.86;117040;1187;22928;-58
2022/07/08 04:23:50;;;;;;;5.40;4.80;;;;;;;22.32;56.25;100291.08;117110;1184;22174;-65
2022/07/08 04:26:17;;;;;;;5.50;4.80;;;;;;;22.37;56.10;100293.65;117225;1186;21897;-66
2022/07/08 04:28:44;;;;;;;6.90;5.10;;;;;;;22.40;56.07;100291.27;117218;1184;21861;-59
2022/07/08 04:31:11;;;;;;;7.40;5.40;;;;;;;22.48;56.27;100297.30;116955;1186;22944;-60
2022/07/08 04:33:38;;;;;;;5.70;5.10;;;;;;;22.55;56.22;100299.50;116993;1187;21865;-66
2022/07/08 04:36:06;;;;;;;6.70;5.40;;;;;;;22.64;56.19;100300.73;117017;1182;21933;-59
2022/07/08 04:38:33;;;;;;;6.30;5.60;;;;;;;22.74;56.13;100301.86;117078;1182;24856;-59
2022/07/08 04:41:00;;;;;;;5.70;4.70;;;;;;;22.85;56.02;100302.98;117250;1186;21972;-59
2022/07/08 04:43:27;;;;;;;6.80;4.80;;;;;;;22.99;55.70;100302.23;117264;1186;22931;-65
2022/07/08 04:45:55;;;;;;;9.50;4.70;;;;;;;23.22;55.85;100304.16;117172;1186;21864;-65
2022/07/08 04:48:22;;;;;;;333.70;30.30;;;;;;;23.46;55.68;100304.86;117252;1186;23455;-60
2022/07/08 04:50:49;;;;;;;286.00;27.00;;;;;;;23.70;55.38;100301.48;116995;1183;21828;-60
2022/07/08 04:53:16;;;;;;;122.90;13.10;;;;;;;23.93;55.19;100298.69;117026;1186;21860;-65
2022/07/08 04:55:45;;;;;;;209.30;22.30;;;;;;;24.16;55.31;100299.19;117245;1183;22150;-65
2022/07/08 04:58:13;;;;;;;307.40;30.50;;;;;;;24.43;54.99;100293.53;117099;1187;23529;-63
2022/07/08 05:00:40;;;;;;;357.50;32.80;;;;;;;24.71;54.88;100297.84;117012;1182;22712;-58
2022/07/08 05:03:06;;;;;;;320.80;29.60;;;;;;;25.02;54.73;100298.66;116998;1187;21861;-58
2022/07/08 05:05:34;;;;;;;48.60;9.10;;;;;;;25.33;54.48;100299.55;117007;1186;21868;-58
2022/07/08 05:08:01;;;;;;;62.90;11.70;;;;;;;25.60;54.31;100294.86;117224;1186;23705;-64
2022/07/08 05:10:29;;;;;;;146.90;15.40;;;;;;;25.88;54.22;100293.98;117051;1184;21870;-57
2022/07/08 05:12:57;;;;;;;100.70;13.20;;;;;;;26.11;53.75;100292.73;117156;1185;21868;-64
2022/07/08 05:15:25;;;;;;;110.00;13.40;;;;;;;26.30;53.50;100290.86;117196;1185;21852;-58
2022/07/08 05:17:55;;;;;;;30.10;8.90;;;;;;;26.50;53.27;100288.60;117191;1186;21857;-58
2022/07/08 05:20:22;;;;;;;488.40;48.20;;;;;;;26.70;52.96;100288.59;117152;1185;22926;-66
2022/07/08 05:22:49;;;;;;;53.20;10.60;;;;;;;26.84;52.77;100285.66;116977;1186;22835;-59
2022/07/08 05:25:17;;;;;;;132.80;15.50;;;;;;;26.99;52.72;100283.87;117041;1187;22726;-59
2022/07/08 05:27:44;;;;;;;125.50;16.10;;;;;;;27.15;52.37;100285.32;117262;1185;21943;-59
2022/07/08 05:30:12;;;;;;;13.70;7.50;;;;;;;27.30;52.27;100287.61;117235;1186;22216;-58
2022/07/08 05:32:40;;;;;;;9.10;6.10;;;;;;;27.48;52.00;100285.96;117215;1186;24317;-65
2022/07/08 05:35:08;;;;;;;6.90;5.70;;;;;;;27.67;51.77;100285.23;117296;1185;22632;-59
2022/07/08 05:37:38;;;;;;;10.10;6.50;;;;;;;27.80;51.43;100285.36;117454;1185;21868;-59
2022/07/08 05:40:09;;;;;;;8.40;6.10;;;;;;;27.92;51.26;100285.63;116965;1188;22320;-59
2022/07/08 05:42:39;;;;;;;9.50;5.90;;;;;;;28.04;50.99;100288.02;117279;1185;21855;-59
2022/07/08 05:45:07;;;;;;;9.30;7.30;;;;;;;28.12;50.98;100286.59;117233;1186;23002;-64
2022/07/08 05:47:34;;;;;;;7.00;6.20;;;;;;;28.25;50.66;100281.71;117181;1186;21857;-66
2022/07/08 05:50:01;;;;;;;7.30;6.30;;;;;;;28.38;50.38;100278.38;117212;1184;21859;-65
2022/07/08 05:52:28;;;;;;;11.90;6.00;;;;;;;28.49;50.12;100274.30;117087;1186;23710;-59
2022/07/08 05:54:56;;;;;;;7.80;5.30;;;;;;;28.58;49.95;100272.64;116990;1185;22037;-60
2022/07/08 05:57:23;;;;;;;8.70;5.50;;;;;;;28.66;49.95;100274.43;117248;1182;21854;-65
2022/07/08 05:59:52;;;;;;;5.70;5.10;;;;;;;28.76;49.87;100272.61;117129;1185;23746;-59
2022/07/08 06:02:20;;;;;;;5.80;5.10;;;;;;;28.85;49.61;100270.64;117157;1186;23715;-59
2022/07/08 06:04:47;;;;;;;5.50;4.70;;;;;;;28.91;49.69;100274.73;116992;1187;21864;-66
2022/07/08 06:07:14;;;;;;;7.20;5.20;;;;;;;29.07;49.40;100278.50;116987;1182;22620;-60
2022/07/08 06:09:41;;;;;;;5.40;4.90;;;;;;;29.19;48.77;100279.59;117099;1184;22916;-65
2022/07/08 06:12:09;;;;;;;6.80;5.30;;;;;;;29.31;48.82;100275.77;116936;1188;23511;-59
2022/07/08 06:14:36;;;;;;;5.40;4.50;;;;;;;29.43;48.74;100276.34;116993;1184;22949;-66
2022/07/08 06:17:03;;;;;;;6.20;4.50;;;;;;;29.59;48.58;100275.41;117099;1187;23768;-60
2022/07/08 06:19:31;;;;;;;8.60;5.30;;;;;;;29.66;48.24;100274.92;117025;1184;22922;-59
2022/07/08 06:21:58;;;;;;;4.90;4.40;;;;;;;29.77;48.15;100267.06;117227;1186;22941;-60
2022/07/08 06:24:25;;;;;;;6.10;4.70;;;;;;;29.88;48.14;100261.05;117220;1185;22946;-67
2022/07/08 06:26:52;;;;;;;5.80;4.80;;;;;;;30.02;47.75;100261.96;117241;1182;23698;-66
2022/07/08 06:29:19;;;;;;;7.50;4.50;;;;;;;30.08;47.66;100265.30;117236;1185;22727;-65
2022/07/08 06:31:47;;;;;;;7.20;4.00;;;;;;;30.17;47.34;100265.39;117256;1183;21857;-65
2022/07/08 06:34:14;;;;;;;9.20;4.90;;;;;;;30.28;47.19;100266.68;117059;1184;22932;-60
2022/07/08 06:36:41;;;;;;;8.00;4.90;;;;;;;30.36;46.90;100263.75;116932;1187;21899;-60
2022/07/08 06:39:09;;;;;;;5.50;4.50;;;;;;;30.44;46.92;100262.02;116969;1186;22935;-59
2022/07/08 06:41:36;;;;;;;6.50;5.10;;;;;;;30.53;46.58;100265.30;117048;1183;21858;-59
2022/07/08 06:44:03;;;;;;;5.20;4.70;;;;;;;30.67;46.34;100265.64;116927;1182;22922;-64
2022/07/08 06:46:30;;;;;;;6.40;4.90;;;;;;;30.78;46.21;100264.13;117231;1184;22636;-65
2022/07/08 06:48:58;;;;;;;4.50;3.60;;;;;;;30.90;46.33;100265.16;117149;1185;23548;-66
2022/07/08 06:51:25;;;;;;;5.60;4.40;;;;;;;31.09;45.91;100265.05;117047;1185;21855;-66
2022/07/08 06:56:38;;;;;;;6.80;4.30;;;;;;;31.28;45.40;100265.52;117131;1186;23609;-61
2022/07/08 06:59:06;;;;;;;8.50;5.10;;;;;;;31.31;44.99;100267.23;117077;1184;23451;-61
2022/07/08 07:01:33;;;;;;;6.60;4.10;;;;;;;31.40;44.98;100267.96;117052;1185;21881;-66
2022/07/08 07:04:01;;;;;;;7.50;4.60;;;;;;;31.48;45.02;100271.10;117409;1181;22936;-66
2022/07/08 07:06:29;;;;;;;9.80;4.60;;;;;;;31.61;44.97;100270.54;116915;1186;21851;-60
2022/07/08 07:08:56;;;;;;;8.10;4.40;;;;;;;31.72;44.73;100266.49;117201;1185;22526;-66
2022/07/08 07:11:23;;;;;;;8.90;3.90;;;;;;;31.86;44.45;100270.09;117076;1184;23576;-67
2022/07/08 07:13:50;;;;;;;6.90;4.30;;;;;;;32.08;44.38;100267.45;117195;1186;21891;-61
2022/07/08 07:16:17;;;;;;;9.90;4.30;;;;;;;32.32;44.03;100266.47;116997;1186;22043;-67
2022/07/08 07:18:44;;;;;;;4.80;3.50;;;;;;;32.44;43.85;100270.05;117059;1187;23450;-67
2022/07/08 07:21:12;;;;;;;9.20;3.50;;;;;;;32.48;43.66;100268.51;117049;1186;21853;-67
2022/07/08 07:23:39;;;;;;;8.40;3.80;;;;;;;32.55;43.10;100266.42;117058;1184;21895;-61
2022/07/08 07:26:06;;;;;;;6.40;3.50;;;;;;;32.61;43.20;100266.64;117059;1184;22632;-67
2022/07/08 07:28:34;;;;;;;6.30;3.40;;;;;;;32.65;43.11;100271.70;117310;1183;22574;-68
2022/07/08 07:31:01;;;;;;;6.50;3.60;;;;;;;32.70;42.62;100271.80;117174;1186;23593;-61
2022/07/08 07:33:28;;;;;;;4.50;3.30;;;;;;;32.82;42.79;100267.24;117164;1186;21856;-68
2022/07/08 07:35:56;;;;;;;11.80;3.70;;;;;;;32.97;42.85;100267.08;117226;1186;22621;-61
2022/07/08 07:38:23;;;;;;;6.30;3.10;;;;;;;33.17;42.67;100265.61;117195;1184;22873;-67
2022/07/08 07:40:51;;;;;;;4.70;3.50;;;;;;;33.38;42.33;100272.80;116988;1182;21864;-61
2022/07/08 07:43:19;;;;;;;4.90;3.60;;;;;;;33.49;42.19;100270.70;117020;1184;22707;-61
2022/07/08 07:45:46;;;;;;;5.30;3.80;;;;;;;33.55;41.52;100266.66;117252;1186;21859;-67
2022/07/08 07:48:14;;;;;;;4.20;3.40;;;;;;;33.51;41.61;100262.13;117127;1186;21858;-68
2022/07/08 07:50:41;;;;;;;6.60;3.40;;;;;;;33.52;41.35;100259.34;117120;1186;21859;-66
2022/07/08 07:53:08;;;;;;;5.30;3.20;;;;;;;33.56;41.36;100262.08;117063;1189;21897;-66
2022/07/08 07:55:35;;;;;;;7.10;3.60;;;;;;;33.65;41.34;100261.16;117254;1183;21964;-66
2022/07/08 07:58:03;;;;;;;3.90;3.40;;;;;;;33.79;41.03;100263.00;117288;1187;21859;-66
2022/07/08 08:00:30;;;;;;;5.00;3.40;;;;;;;33.86;41.03;100257.66;117062;1184;21967;-61
2022/07/08 08:02:57;;;;;;;4.60;3.20;;;;;;;33.97;41.13;100258.82;117209;1184;21894;-61
2022/07/08 08:05:24;;;;;;;3.70;3.30;;;;;;;34.09;40.94;100256.70;116969;1186;21884;-61
2022/07/08 08:07:51;;;;;;;8.30;3.90;;;;;;;34.22;40.58;100254.94;117350;1184;23608;-61
2022/07/08 08:10:18;;;;;;;5.70;3.90;;;;;;;34.40;39.73;100260.04;117136;1186;23582;-61
2022/07/08 08:12:45;;;;;;;4.50;3.80;;;;;;;34.49;39.89;100258.57;117219;1184;23643;-60
2022/07/08 08:15:12;;;;;;;5.00;3.30;;;;;;;34.55;39.85;100250.58;117179;1186;21867;-61
2022/07/08 08:17:41;;;;;;;8.20;3.70;;;;;;;34.66;39.30;100254.11;117224;1186;21857;-60
2022/07/08 08:20:10;;;;;;;4.40;3.60;;;;;;;34.74;39.36;100254.08;117234;1186;24155;-60
2022/07/08 08:22:38;;;;;;;5.00;3.80;;;;;;;34.86;39.26;100252.09;117245;1186;22833;-60
2022/07/08 08:25:25;;;;;;;4.50;3.10;;;;;;;35.02;39.45;100254.25;117148;1186;21986;-60
2022/07/08 08:27:52;;;;;;;4.60;3.70;;;;;;;35.21;39.37;100248.20;116969;1187;22996;-60
2022/07/08 08:30:20;;;;;;;5.80;3.20;;;;;;;35.42;39.13;100244.08;116982;1184;23719;-59
2022/07/08 08:32:47;;;;;;;5.80;3.70;;;;;;;35.60;38.97;100245.38;117225;1186;21844;-60
2022/07/08 08:35:16;;;;;;;6.40;3.60;;;;;;;35.71;38.33;100247.46;117138;1184;21855;-60
2022/07/08 08:37:43;;;;;;;5.20;3.40;;;;;;;35.68;38.18;100243.63;117488;1186;23459;-60
2022/07/08 08:40:11;;;;;;;4.30;3.40;;;;;;;35.71;38.19;100241.11;117206;1185;21857;-62
2022/07/08 08:42:40;;;;;;;7.90;3.50;;;;;;;35.85;37.92;100239.98;117201;1186;21855;-61
2022/07/08 08:45:07;;;;;;;10.40;3.70;;;;;;;36.04;38.03;100238.00;117261;1184;21961;-60
2022/07/08 08:47:36;;;;;;;4.70;3.60;;;;;;;36.17;37.68;100236.27;117189;1182;23532;-60
2022/07/08 08:52:53;;;;;;;6.10;3.80;;;;;;;36.36;37.34;100232.13;117058;1187;21861;-61
2022/07/08 08:55:25;;;;;;;6.90;3.40;;;;;;;36.37;37.18;100230.48;116918;1186;21862;-60
2022/07/08 08:57:57;;;;;;;6.90;3.40;;;;;;;36.39;37.15;100229.89;117100;1185;21872;-61
2022/07/08 09:00:26;;;;;;;4.40;3.70;;;;;;;36.51;37.08;100224.48;117206;1183;23579;-61
2022/07/08 09:02:53;;;;;;;4.40;3.70;;;;;;;36.65;36.73;100225.48;117170;1186;21856;-65
2022/07/08 09:05:22;;;;;;;4.00;3.40;;;;;;;36.75;36.48;100222.52;117294;1184;24173;-61
2022/07/08 09:07:50;;;;;;;5.10;3.80;;;;;;;36.90;36.12;100225.59;117081;1187;21854;-61
2022/07/08 09:10:18;;;;;;;4.30;3.40;;;;;;;37.00;36.29;100219.60;117231;1186;22529;-64
2022/07/08 09:13:00;;;;;;;6.60;3.10;;;;;;;37.23;36.31;100216.30;117155;1186;21879;-60
2022/07/08 09:15:40;;;;;;;6.50;3.60;;;;;;;37.43;35.85;100217.18;116996;1186;22124;-65
2022/07/08 09:18:11;;;;;;;7.40;3.50;;;;;;;37.63;35.74;100217.70;117229;1181;22925;-65
2022/07/08 09:20:42;;;;;;;6.20;3.10;;;;;;;37.80;35.27;100211.51;117154;1186;21899;-61
2022/07/08 09:23:17;;;;;;;5.70;3.20;;;;;;;37.90;35.09;100215.34;117016;1186;24175;-65
2022/07/08 09:25:48;;;;;;;5.30;3.10;;;;;;;38.09;34.92;100215.40;117211;1185;21845;-65
2022/07/08 09:28:39;;;;;;;11.60;3.60;;;;;;;38.35;34.61;100211.45;117235;1182;21859;-65
2022/07/08 09:31:08;;;;;;;6.80;3.60;;;;;;;38.54;34.64;100210.59;118698;1182;23177;-64
2022/07/08 09:33:36;;;;;;;4.80;3.50;;;;;;;38.63;34.15;100211.39;117319;1183;21900;-61
2022/07/08 09:36:04;;;;;;;5.50;3.60;;;;;;;38.62;34.18;100207.44;117191;1182;22955;-60
2022/07/08 09:38:35;;;;;;;5.70;3.40;;;;;;;38.71;33.99;100208.09;117029;1185;22694;-65
2022/07/08 09:41:05;;;;;;;5.20;3.20;;;;;;;38.77;33.49;100204.50;116977;1187;23452;-65
2022/07/08 09:43:33;;;;;;;;;;;;;;;38.96;33.83;100205.77;117080;1187;22991;-65
2022/07/08 09:46:05;;;;;;;8.20;3.50;;;;;;;39.20;33.81;100208.28;117251;1184;23651;-60
2022/07/08 09:48:32;;;;;;;5.00;3.50;;;;;;;39.34;33.25;100211.70;117171;1185;21852;-61
2022/07/08 09:51:00;;;;;;;5.50;3.30;;;;;;;39.35;32.32;100210.78;117247;1186;22905;-59
2022/07/08 09:53:31;;;;;;;5.40;3.70;;;;;;;39.26;32.44;100201.30;117130;1186;22108;-65
2022/07/08 09:56:01;;;;;;;12.30;3.80;;;;;;;39.41;32.73;100197.67;117220;1186;21895;-65
2022/07/08 09:58:29;;;;;;;4.40;3.20;;;;;;;39.64;31.88;100196.67;117239;1186;23615;-65
2022/07/08 10:00:56;;;;;;;8.90;3.10;;;;;;;39.69;31.80;100198.05;117485;1183;21894;-61
2022/07/08 10:03:24;;;;;;;4.60;3.30;;;;;;;39.63;32.02;100201.80;117792;1185;23576;-61
2022/07/08 10:05:53;;;;;;;9.40;3.50;;;;;;;39.71;31.57;100200.85;117192;1184;22945;-61
2022/07/08 10:08:20;;;;;;;3.70;3.20;;;;;;;39.72;31.37;100202.70;116882;1187;22124;-61
2022/07/08 10:10:48;;;;;;;3.50;2.80;;;;;;;39.70;31.50;100196.73;117236;1186;23616;-62
2022/07/08 10:13:16;;;;;;;5.90;3.30;;;;;;;39.86;31.39;100196.20;117067;1187;23639;-65
2022/07/08 10:15:43;;;;;;;4.80;3.70;;;;;;;40.11;31.74;100196.86;117061;1187;23618;-65
2022/07/08 10:18:21;;;;;;;5.80;3.70;;;;;;;40.17;30.97;100195.02;117017;1187;21961;-62
2022/07/08 10:20:50;;;;;;;5.30;3.60;;;;;;;40.24;31.10;100187.33;117019;1184;23692;-65
2022/07/08 10:23:34;;;;;;;5.30;3.30;;;;;;;40.47;31.03;100190.55;117044;1185;24162;-62
2022/07/08 10:26:02;;;;;;;4.40;3.20;;;;;;;40.45;30.62;100185.17;117041;1186;21884;-65
2022/07/08 10:28:36;;;;;;;4.40;3.60;;;;;;;40.43;30.30;100181.80;117072;1186;21928;-62
2022/07/08 10:31:21;;;;;;;6.10;3.00;;;;;;;40.52;30.06;100170.92;117060;1184;23476;-61
2022/07/08 10:33:48;;;;;;;4.00;3.30;;;;;;;40.54;30.01;100172.99;116922;1187;21859;-66
2022/07/08 10:36:20;;;;;;;4.20;3.50;;;;;;;40.57;29.73;100175.95;117280;1186;22966;-66
2022/07/08 10:38:47;;;;;;;8.30;3.60;;;;;;;40.57;29.42;100172.93;117181;1186;21860;-66
2022/07/08 10:41:19;;;;;;;4.40;3.20;;;;;;;40.59;29.65;100170.61;117144;1186;22098;-61
2022/07/08 10:43:51;;;;;;;4.40;3.50;;;;;;;40.66;29.41;100170.02;117157;1185;22084;-67
2022/07/08 10:46:18;;;;;;;6.90;3.00;;;;;;;40.71;29.06;100170.89;117171;1183;21854;-67
2022/07/08 10:48:47;;;;;;;5.30;3.30;;;;;;;40.87;29.29;100168.44;117251;1188;21869;-62
2022/07/08 10:51:18;;;;;;;3.90;3.00;;;;;;;41.12;29.45;100164.06;117230;1186;23552;-66
2022/07/08 10:54:05;;;;;;;4.30;3.30;;;;;;;41.38;28.88;100169.58;117146;1186;21856;-66
2022/07/08 10:56:49;;;;;;;4.30;3.00;;;;;;;41.37;28.69;100173.90;117242;1184;21844;-64
2022/07/08 10:59:23;;;;;;;5.70;3.40;;;;;;;41.26;28.47;100167.73;117182;1186;21948;-62
2022/07/08 11:02:02;;;;;;;3.90;3.50;;;;;;;41.04;28.29;100167.49;116924;1187;22320;-62
2022/07/08 11:04:36;;;;;;;4.40;3.40;;;;;;;40.70;27.80;100164.11;117217;1186;23476;-67
2022/07/08 11:07:17;;;;;;;5.70;3.40;;;;;;;40.29;27.76;100166.34;117246;1186;21928;-63
2022/07/08 11:09:46;;;;;;;7.90;3.10;;;;;;;39.94;28.23;100158.67;117070;1187;21862;-67
2022/07/08 11:12:13;;;;;;;3.60;3.10;;;;;;;40.00;28.54;100153.85;117131;1185;22727;-66
2022/07/08 11:14:44;;;;;;;4.40;3.50;;;;;;;40.26;28.60;100154.11;117087;1187;23005;-62
2022/07/08 11:17:15;;;;;;;3.50;3.20;;;;;;;40.50;27.49;100142.61;117276;1186;21964;-62
2022/07/08 11:19:47;;;;;;;9.30;3.20;;;;;;;40.58;27.30;100140.64;116958;1187;21868;-66
2022/07/08 11:22:14;;;;;;;6.20;3.40;;;;;;;40.73;27.37;100143.31;116988;1187;22907;-62
2022/07/08 11:24:53;;;;;;;6.60;3.20;;;;;;;40.85;27.00;100143.16;117043;1187;21860;-67
2022/07/08 11:27:29;;;;;;;3.10;2.60;;;;;;;40.81;27.13;100134.92;117028;1187;21859;-67
2022/07/08 11:29:56;;;;;;;5.30;3.30;;;;;;;40.90;26.95;100130.52;116929;1187;23579;-62